createdAt,value
2022-08-05T00:02:51.148Z,4.80
2022-08-05T00:06:04.838Z,4.75
2022-08-05T00:09:19.487Z,5.07
2022-08-05T00:12:22.758Z,4.95
2022-08-05T00:15:54.913Z,4.65
2022-08-05T00:18:49.378Z,4.87
2022-08-05T00:21:54.112Z,5.03
2022-08-05T00:24:56.930Z,4.57
2022-08-05T00:27:59.935Z,4.70
2022-08-05T00:31:05.048Z,4.60
2022-08-05T00:34:54.080Z,4.90
2022-08-05T00:37:50.987Z,4.50
2022-08-05T00:40:59.180Z,4.70
2022-08-05T00:44:03.202Z,4.65
2022-08-05T00:47:06.007Z,4.53
2022-08-05T00:50:09.734Z,4.53
2022-08-05T00:54:00.867Z,4.55
2022-08-05T00:56:36.003Z,4.40
2022-08-05T00:59:44.429Z,4.55
2022-08-05T01:02:48.208Z,4.68
2022-08-05T01:05:54.908Z,4.32
2022-08-05T01:08:57.858Z,4.47
2022-08-05T01:12:18.164Z,4.50
2022-08-05T01:15:36.481Z,4.45
2022-08-05T01:18:48.091Z,4.60
2022-08-05T01:22:24.246Z,4.60
2022-08-05T01:25:53.464Z,4.95
2022-08-05T01:29:13.789Z,5.20
2022-08-05T01:32:20.960Z,4.68
2022-08-05T01:35:51.085Z,4.70
2022-08-05T01:38:53.446Z,4.78
2022-08-05T01:41:58.233Z,5.00
2022-08-05T01:45:02.081Z,5.25
2022-08-05T01:48:10.254Z,5.35
2022-08-05T01:51:16.624Z,4.80
2022-08-05T01:54:25.682Z,5.25
2022-08-05T01:58:10.036Z,4.75
2022-08-05T02:00:58.846Z,4.80
2022-08-05T02:04:03.044Z,4.90
2022-08-05T02:07:06.147Z,4.93
2022-08-05T02:10:11.312Z,4.62
2022-08-05T02:13:53.273Z,5.10
2022-08-05T02:17:03.223Z,4.65
2022-08-05T02:20:11.328Z,4.47
2022-08-05T02:23:17.627Z,5.62
2022-08-05T02:26:38.793Z,4.43
2022-08-05T02:29:58.668Z,4.90
2022-08-05T02:33:04.806Z,4.72
2022-08-05T02:36:15.573Z,4.82
2022-08-05T02:39:21.541Z,4.55
2022-08-05T02:42:26.122Z,4.40
2022-08-05T02:45:52.046Z,4.37
2022-08-05T02:48:57.238Z,4.35
2022-08-05T02:52:04.248Z,4.18
2022-08-05T02:55:10.693Z,4.70
2022-08-05T02:58:16.694Z,4.40
2022-08-05T03:01:27.276Z,4.45
2022-08-05T03:04:30.930Z,4.82
2022-08-05T03:08:01.213Z,4.70
2022-08-05T03:11:53.184Z,4.20
2022-08-05T03:14:21.218Z,4.15
2022-08-05T03:17:23.827Z,4.15
2022-08-05T03:20:27.934Z,4.65
2022-08-05T03:23:30.731Z,4.40
2022-08-05T03:26:38.109Z,4.30
2022-08-05T03:29:46.002Z,4.75
2022-08-05T03:33:05.854Z,4.50
2022-08-05T03:36:12.099Z,4.72
2022-08-05T03:39:20.069Z,4.82
2022-08-05T03:42:32.281Z,4.43
2022-08-05T03:45:58.216Z,4.60
2022-08-05T03:49:02.112Z,4.75
2022-08-05T03:52:38.454Z,5.10
2022-08-05T03:56:05.719Z,4.90
2022-08-05T03:59:07.223Z,4.87
2022-08-05T04:05:21.351Z,5.28
2022-08-05T04:08:34.819Z,5.07
2022-08-05T04:11:47.651Z,5.15
2022-08-05T04:14:57.568Z,4.95
2022-08-05T04:18:06.785Z,4.82
2022-08-05T04:21:10.911Z,4.60
2022-08-05T04:24:19.345Z,4.72
2022-08-05T04:27:33.247Z,5.12
2022-08-05T04:30:45.967Z,5.40
2022-08-05T04:34:17.537Z,5.25
2022-08-05T04:37:11.823Z,5.05
2022-08-05T04:40:17.068Z,5.20
2022-08-05T04:43:22.360Z,5.00
2022-08-05T04:46:28.287Z,5.20
2022-08-05T04:50:01.633Z,4.97
2022-08-05T04:52:53.969Z,5.22
2022-08-05T04:56:32.998Z,4.30
2022-08-05T04:59:24.174Z,5.10
2022-08-05T05:02:43.308Z,4.68
2022-08-05T05:06:39.151Z,4.62
2022-08-05T05:09:14.138Z,4.15
2022-08-05T05:12:19.963Z,4.07
2022-08-05T05:15:57.417Z,4.15
2022-08-05T05:19:16.531Z,3.90
2022-08-05T05:22:22.620Z,3.83
2022-08-05T05:25:40.358Z,4.20
2022-08-05T05:28:45.049Z,3.80
2022-08-05T05:31:47.774Z,4.45
2022-08-05T05:34:52.314Z,4.10
2022-08-05T05:38:01.971Z,4.00
2022-08-05T05:41:05.348Z,4.07
2022-08-05T05:44:35.744Z,4.37
2022-08-05T05:48:06.094Z,4.10
2022-08-05T05:50:57.614Z,3.85
2022-08-05T05:54:03.377Z,3.80
2022-08-05T05:57:05.842Z,4.03
2022-08-05T06:00:19.597Z,3.90
2022-08-05T06:03:39.959Z,3.95
2022-08-05T06:06:47.704Z,4.10
2022-08-05T06:10:01.376Z,4.28
2022-08-05T06:13:07.236Z,3.97
2022-08-05T06:16:31.067Z,4.70
2022-08-05T06:19:34.608Z,4.10
2022-08-05T06:22:38.341Z,3.92
2022-08-05T06:26:12.812Z,4.37
2022-08-05T06:29:06.434Z,4.47
2022-08-05T06:32:29.425Z,4.20
2022-08-05T06:36:08.077Z,4.30
2022-08-05T06:38:54.919Z,4.15
2022-08-05T06:42:01.288Z,3.92
2022-08-05T06:45:08.626Z,4.07
2022-08-05T06:48:55.351Z,3.90
2022-08-05T06:51:34.275Z,3.70
2022-08-05T06:54:38.747Z,4.37
2022-08-05T06:57:57.282Z,3.90
2022-08-05T07:01:06.188Z,4.75
2022-08-05T07:04:09.159Z,5.00
2022-08-05T07:07:12.723Z,4.40
2022-08-05T07:10:18.011Z,3.97
2022-08-05T07:13:57.647Z,4.07
2022-08-05T07:18:02.422Z,3.65
2022-08-05T07:20:34.131Z,4.35
2022-08-05T07:23:49.132Z,3.65
2022-08-05T07:26:53.121Z,4.03
2022-08-05T07:30:27.255Z,3.30
2022-08-05T07:33:36.878Z,3.35
2022-08-05T07:36:40.286Z,3.30
2022-08-05T07:40:26.679Z,3.75
2022-08-05T07:43:20.401Z,3.37
2022-08-05T07:46:30.584Z,3.10
2022-08-05T07:49:33.667Z,2.95
2022-08-05T07:52:46.686Z,3.53
2022-08-05T07:56:06.294Z,3.28
2022-08-05T07:59:13.116Z,3.22
2022-08-05T08:02:17.830Z,2.80
2022-08-05T08:05:21.120Z,2.50
2022-08-05T08:08:23.747Z,3.03
2022-08-05T08:11:47.171Z,2.92
2022-08-05T08:14:52.367Z,3.22
2022-08-05T08:17:55.200Z,2.90
2022-08-05T08:21:09.825Z,3.47
2022-08-05T08:24:18.987Z,3.15
2022-08-05T08:27:23.178Z,2.90
2022-08-05T08:30:49.504Z,3.22
2022-08-05T08:33:53.265Z,2.70
2022-08-05T08:37:01.762Z,2.92
2022-08-05T08:40:08.527Z,2.95
2022-08-05T08:44:54.757Z,3.00
2022-08-05T08:46:40.273Z,3.00
2022-08-05T08:50:13.120Z,2.70
2022-08-05T08:53:12.291Z,3.15
2022-08-05T08:56:15.912Z,3.15
2022-08-05T08:59:20.769Z,3.10
2022-08-05T09:02:26.860Z,2.95
2022-08-05T09:05:38.642Z,2.75
2022-08-05T09:08:52.423Z,3.00
2022-08-05T09:11:59.326Z,2.95
2022-08-05T09:15:09.663Z,2.80
2022-08-05T09:18:13.292Z,3.00
2022-08-05T09:21:20.785Z,3.10
2022-08-05T09:28:05.788Z,3.28
2022-08-05T09:31:43.806Z,3.20
2022-08-05T09:34:47.672Z,2.80
2022-08-05T09:38:16.341Z,3.58
2022-08-05T09:41:18.003Z,3.22
2022-08-05T09:44:42.392Z,2.80
2022-08-05T09:47:55.372Z,3.10
2022-08-05T09:51:01.415Z,3.00
2022-08-05T09:54:08.388Z,3.10
2022-08-05T09:57:29.272Z,3.00
2022-08-05T10:00:38.353Z,3.10
2022-08-05T10:03:58.528Z,3.10
2022-08-05T10:07:01.797Z,2.78
2022-08-05T10:10:38.414Z,3.03
2022-08-05T10:13:47.835Z,3.25
2022-08-05T10:16:53.504Z,2.87
2022-08-05T10:20:04.207Z,3.15
2022-08-05T10:23:22.196Z,2.85
2022-08-05T10:26:48.963Z,2.80
2022-08-05T10:30:41.567Z,3.10
2022-08-05T10:33:17.543Z,3.17
2022-08-05T10:36:23.552Z,3.03
2022-08-05T10:40:03.138Z,3.33
2022-08-05T10:43:04.904Z,2.97
2022-08-05T10:46:10.540Z,3.10
2022-08-05T10:49:16.597Z,3.00
2022-08-05T10:52:49.656Z,3.47
2022-08-05T10:56:21.272Z,2.67
2022-08-05T11:00:03.194Z,2.80
2022-08-05T11:03:23.652Z,3.05
2022-08-05T11:06:30.746Z,3.30
2022-08-05T11:09:46.366Z,2.90
2022-08-05T11:12:54.244Z,2.90
2022-08-05T11:16:47.817Z,2.97
2022-08-05T11:20:11.337Z,2.80
2022-08-05T11:23:33.208Z,2.95
2022-08-05T11:26:36.578Z,2.80
2022-08-05T11:29:41.007Z,2.72
2022-08-05T11:32:43.649Z,3.00
2022-08-05T11:39:12.195Z,3.20
2022-08-05T11:42:18.561Z,3.30
2022-08-05T11:45:26.771Z,3.00
2022-08-05T11:48:44.748Z,3.10
2022-08-05T11:51:53.404Z,2.90
2022-08-05T11:54:57.504Z,2.95
2022-08-05T11:58:09.556Z,3.15
2022-08-05T12:01:22.417Z,3.30
2022-08-05T12:04:27.292Z,3.10
2022-08-05T12:08:09.139Z,3.08
2022-08-05T12:11:05.699Z,2.67
2022-08-05T12:14:10.327Z,2.95
2022-08-05T12:18:03.202Z,2.97
2022-08-05T12:20:38.712Z,3.20
2022-08-05T12:23:52.967Z,3.20
2022-08-05T12:26:56.746Z,2.92
2022-08-05T12:30:01.420Z,3.22
2022-08-05T12:33:07.300Z,2.87
2022-08-05T12:36:30.652Z,3.25
2022-08-05T12:39:37.321Z,2.95
2022-08-05T12:42:41.448Z,3.12
2022-08-05T12:45:51.464Z,2.90
2022-08-05T12:49:00.965Z,2.97
2022-08-05T12:52:23.922Z,3.08
2022-08-05T12:55:32.465Z,3.10
2022-08-05T12:58:49.408Z,3.20
2022-08-05T13:02:06.884Z,3.10
2022-08-05T13:05:14.504Z,3.05
2022-08-05T13:08:18.583Z,3.30
2022-08-05T13:12:01.952Z,3.10
2022-08-05T13:15:05.689Z,3.03
2022-08-05T13:18:10.768Z,2.85
2022-08-05T13:21:14.221Z,2.85
2022-08-05T13:24:36.265Z,2.90
2022-08-05T13:27:42.849Z,2.95
2022-08-05T13:30:45.829Z,2.55
2022-08-05T13:34:22.684Z,3.15
2022-08-05T13:37:13.853Z,2.90
2022-08-05T13:40:48.124Z,3.10
2022-08-05T13:43:55.231Z,2.80
2022-08-05T13:47:04.971Z,2.95
2022-08-05T13:50:16.527Z,3.05
2022-08-05T13:53:19.710Z,3.00
2022-08-05T13:56:22.323Z,2.80
2022-08-05T13:59:27.005Z,3.17
2022-08-05T14:02:31.370Z,3.17
2022-08-05T14:06:25.039Z,2.90
2022-08-05T14:08:59.413Z,2.95
2022-08-05T14:12:17.705Z,2.75
2022-08-05T14:16:04.692Z,2.97
2022-08-05T14:18:49.244Z,3.33
2022-08-05T14:22:11.814Z,2.90
2022-08-05T14:25:21.394Z,3.15
2022-08-05T14:28:27.066Z,2.70
2022-08-05T14:32:03.641Z,3.08
2022-08-05T14:34:53.835Z,2.72
2022-08-05T14:37:59.476Z,3.17
2022-08-05T14:41:07.459Z,3.10
2022-08-05T14:44:20.412Z,2.83
2022-08-05T14:47:58.478Z,2.83
2022-08-05T14:50:47.797Z,2.85
2022-08-05T14:54:06.630Z,2.60
2022-08-05T14:57:15.107Z,2.80
2022-08-05T15:00:20.011Z,3.08
2022-08-05T15:03:23.032Z,2.83
2022-08-05T15:06:28.009Z,2.67
2022-08-05T15:09:54.271Z,3.00
2022-08-05T15:13:01.142Z,3.10
2022-08-05T15:16:06.766Z,3.05
2022-08-05T15:19:23.487Z,2.75
2022-08-05T15:22:28.184Z,3.10
2022-08-05T15:25:41.111Z,2.80
2022-08-05T15:28:54.016Z,2.65
2022-08-05T15:31:56.585Z,3.45
2022-08-05T15:34:59.378Z,2.70
2022-08-05T15:38:35.451Z,3.12
2022-08-05T15:41:58.584Z,3.10
2022-08-05T15:44:58.108Z,3.12
2022-08-05T15:48:02.411Z,3.25
2022-08-05T15:51:05.963Z,3.10
2022-08-05T15:54:09.031Z,3.50
2022-08-05T15:57:17.621Z,3.62
2022-08-05T16:00:26.258Z,3.50
2022-08-05T16:03:43.585Z,3.53
2022-08-05T16:06:46.085Z,3.67
2022-08-05T16:09:48.904Z,3.80
2022-08-05T16:12:51.540Z,4.32
2022-08-05T16:15:55.071Z,3.72
2022-08-05T16:18:58.191Z,4.03
2022-08-05T16:25:09.915Z,3.70
2022-08-05T16:28:14.159Z,3.30
2022-08-05T16:31:18.266Z,3.00
2022-08-05T16:34:23.444Z,2.92
2022-08-05T16:38:15.604Z,2.60
2022-08-05T16:40:55.446Z,2.67
2022-08-05T16:44:02.617Z,2.80
2022-08-05T16:47:06.069Z,2.58
2022-08-05T16:50:29.541Z,3.05
2022-08-05T16:54:13.526Z,3.05
2022-08-05T16:57:52.553Z,2.75
2022-08-05T17:00:51.558Z,2.45
2022-08-05T17:03:54.317Z,2.92
2022-08-05T17:07:03.176Z,2.72
2022-08-05T17:10:11.062Z,2.62
2022-08-05T17:13:16.933Z,2.92
2022-08-05T17:16:33.005Z,3.00
2022-08-05T17:19:36.575Z,2.53
2022-08-05T17:22:39.268Z,2.67
2022-08-05T17:25:42.162Z,2.80
2022-08-05T17:28:47.233Z,3.20
2022-08-05T17:31:58.270Z,3.40
2022-08-05T17:35:02.245Z,2.65
2022-08-05T17:38:09.598Z,3.20
2022-08-05T17:42:18.620Z,2.90
2022-08-05T17:44:35.951Z,3.30
2022-08-05T17:47:39.070Z,3.17
2022-08-05T17:50:42.668Z,2.95
2022-08-05T17:53:45.895Z,3.37
2022-08-05T17:56:57.342Z,3.30
2022-08-05T18:00:04.947Z,3.05
2022-08-05T18:03:10.918Z,3.08
2022-08-05T18:06:15.246Z,3.05
2022-08-05T18:09:18.492Z,3.12
2022-08-05T18:12:22.251Z,3.55
2022-08-05T18:15:27.658Z,3.28
2022-08-05T18:18:33.997Z,3.30
2022-08-05T18:22:07.342Z,2.97
2022-08-05T18:25:06.663Z,3.55
2022-08-05T18:28:10.004Z,3.28
2022-08-05T18:31:12.681Z,3.53
2022-08-05T18:34:21.543Z,3.37
2022-08-05T18:37:33.639Z,3.50
2022-08-05T18:41:58.336Z,3.30
2022-08-05T18:44:07.942Z,3.40
2022-08-05T18:47:12.140Z,3.30
2022-08-05T18:50:45.310Z,3.78
2022-08-05T18:53:50.797Z,3.70
2022-08-05T18:56:53.297Z,3.62
2022-08-05T19:00:03.129Z,3.83
2022-08-05T19:03:10.326Z,4.00
2022-08-05T19:06:21.665Z,3.65
2022-08-05T19:09:25.306Z,3.85
2022-08-05T19:12:32.162Z,4.07
2022-08-05T19:16:00.144Z,4.10
2022-08-05T19:18:57.974Z,3.95
2022-08-05T19:22:00.598Z,4.10
2022-08-05T19:25:04.213Z,3.78
2022-08-05T19:28:06.915Z,4.05
2022-08-05T19:31:12.985Z,4.50
2022-08-05T19:34:18.629Z,4.80
2022-08-05T19:37:21.611Z,5.00
2022-08-05T19:40:25.168Z,4.65
2022-08-05T19:44:05.326Z,4.30
2022-08-05T19:46:50.616Z,4.72
2022-08-05T19:49:57.393Z,4.68
2022-08-05T19:53:09.358Z,4.20
2022-08-05T19:56:19.757Z,4.70
2022-08-05T19:59:54.586Z,4.97
2022-08-05T20:02:54.024Z,4.82
2022-08-05T20:05:58.011Z,4.75
2022-08-05T20:09:06.121Z,5.03
2022-08-05T20:12:16.688Z,5.00
2022-08-05T20:15:22.992Z,4.95
2022-08-05T20:18:44.123Z,5.85
2022-08-05T20:21:47.580Z,5.00
2022-08-05T20:24:52.885Z,5.07
2022-08-05T20:27:56.710Z,4.82
2022-08-05T20:31:00.851Z,5.05
2022-08-05T20:34:04.494Z,5.53
2022-08-05T20:37:17.829Z,5.43
2022-08-05T20:40:26.933Z,5.30
2022-08-05T20:43:57.461Z,4.68
2022-08-05T20:46:52.479Z,5.53
2022-08-05T20:49:55.232Z,4.80
2022-08-05T20:52:58.016Z,5.37
2022-08-05T20:56:09.030Z,5.15
2022-08-05T20:59:18.936Z,4.80
2022-08-05T21:02:22.615Z,4.90
2022-08-05T21:05:47.690Z,4.80
2022-08-05T21:08:53.285Z,5.10
2022-08-05T21:12:07.741Z,5.12
2022-08-05T21:15:13.865Z,4.93
2022-08-05T21:18:16.388Z,4.82
2022-08-05T21:21:19.274Z,5.35
2022-08-05T21:24:27.235Z,5.18
2022-08-05T21:27:38.619Z,5.30
2022-08-05T21:30:41.955Z,5.07
2022-08-05T21:33:47.532Z,5.60
2022-08-05T21:36:51.874Z,5.53
2022-08-05T21:39:54.720Z,5.47
2022-08-05T21:42:59.223Z,5.20
2022-08-05T21:46:04.039Z,5.70
2022-08-05T21:49:10.026Z,5.22
2022-08-05T21:52:30.671Z,5.10
2022-08-05T21:56:01.577Z,5.60
2022-08-05T21:58:58.061Z,5.12
2022-08-05T22:02:00.596Z,5.20
2022-08-05T22:05:06.155Z,4.93
2022-08-05T22:08:22.150Z,4.53
2022-08-05T22:11:34.721Z,4.70
2022-08-05T22:14:38.790Z,5.18
2022-08-05T22:17:48.713Z,4.95
2022-08-05T22:21:04.032Z,5.00
2022-08-05T22:24:40.534Z,4.87
2022-08-05T22:28:09.028Z,4.53
2022-08-05T22:31:06.597Z,4.85
2022-08-05T22:34:09.092Z,4.80
2022-08-05T22:37:15.714Z,4.82
2022-08-05T22:40:20.345Z,4.78
2022-08-05T22:43:36.974Z,5.00
2022-08-05T22:46:41.168Z,4.40
2022-08-05T22:50:19.304Z,4.70
2022-08-05T22:53:13.087Z,4.55
2022-08-05T22:56:30.140Z,4.43
2022-08-05T22:59:45.803Z,4.35
2022-08-05T23:02:53.732Z,4.65
2022-08-05T23:05:56.617Z,4.93
2022-08-05T23:09:27.919Z,5.00
2022-08-05T23:12:24.350Z,4.87
2022-08-05T23:15:30.007Z,4.70
2022-08-05T23:18:38.510Z,5.10
2022-08-05T23:21:42.941Z,4.82
2022-08-05T23:24:51.419Z,4.60
2022-08-05T23:27:57.805Z,5.03
2022-08-05T23:31:17.535Z,5.28
2022-08-05T23:34:24.686Z,5.25
2022-08-05T23:37:27.436Z,4.78
2022-08-05T23:40:39.590Z,4.70
2022-08-05T23:44:06.520Z,5.10
2022-08-05T23:47:15.396Z,5.25
2022-08-05T23:50:20.194Z,5.05
2022-08-05T23:53:23.346Z,5.30
2022-08-05T23:56:31.079Z,5.10
